createdAt,value
2019-01-25T00:00:46.034Z,-1.50
2019-01-25T00:03:26.181Z,-1.60
2019-01-25T00:06:06.161Z,-1.50
2019-01-25T00:08:46.303Z,-1.50
2019-01-25T00:11:27.165Z,-1.50
2019-01-25T00:14:06.970Z,-1.60
2019-01-25T00:16:47.096Z,-1.50
2019-01-25T00:19:27.172Z,-1.50
2019-01-25T00:22:07.305Z,-1.50
2019-01-25T00:24:48.490Z,-1.50
2019-01-25T00:27:28.541Z,-1.60
2019-01-25T00:30:08.740Z,-1.70
2019-01-25T00:32:49.046Z,-1.70
2019-01-25T00:35:29.745Z,-1.70
2019-01-25T00:38:10.251Z,-1.80
2019-01-25T00:40:50.354Z,-1.80
2019-01-25T00:43:31.531Z,-1.80
2019-01-25T00:46:11.639Z,-1.80
2019-01-25T00:48:51.684Z,-1.90
2019-01-25T00:51:32.156Z,-2.10
2019-01-25T00:54:12.409Z,-2.10
2019-01-25T00:56:52.197Z,-2.00
2019-01-25T00:59:32.202Z,-2.20
2019-01-25T01:02:12.335Z,-2.40
2019-01-25T01:04:52.677Z,-2.50
2019-01-25T01:07:32.686Z,-2.50
2019-01-25T01:10:14.173Z,-2.60
2019-01-25T01:12:54.772Z,-2.60
2019-01-25T01:15:34.611Z,-2.60
2019-01-25T01:18:15.156Z,-2.60
2019-01-25T01:20:55.516Z,-2.60
2019-01-25T01:23:35.432Z,-2.50
2019-01-25T01:26:15.480Z,-2.50
2019-01-25T01:28:55.534Z,-2.50
2019-01-25T01:31:35.996Z,-2.40
2019-01-25T01:34:15.814Z,-2.40
2019-01-25T01:36:55.869Z,-2.40
2019-01-25T01:39:36.125Z,-2.50
2019-01-25T01:42:16.040Z,-2.60
2019-01-25T01:44:55.924Z,-2.60
2019-01-25T01:47:35.780Z,-2.50
2019-01-25T01:50:16.085Z,-2.40
2019-01-25T01:52:55.988Z,-2.30
2019-01-25T01:55:36.153Z,-2.30
2019-01-25T01:58:16.160Z,-2.40
2019-01-25T02:00:56.470Z,-2.40
2019-01-25T02:03:36.350Z,-2.40
2019-01-25T02:06:16.527Z,-2.50
2019-01-25T02:08:56.889Z,-2.40
2019-01-25T02:11:36.687Z,-2.30
2019-01-25T02:14:16.874Z,-2.40
2019-01-25T02:16:57.068Z,-2.40
2019-01-25T02:19:37.149Z,-2.40
2019-01-25T02:22:17.635Z,-2.40
2019-01-25T02:24:57.651Z,-2.40
2019-01-25T02:27:37.368Z,-2.30
2019-01-25T02:30:17.486Z,-2.30
2019-01-25T02:32:57.604Z,-2.30
2019-01-25T02:35:37.747Z,-2.30
2019-01-25T02:38:18.470Z,-2.20
2019-01-25T02:40:58.962Z,-2.20
2019-01-25T02:43:39.274Z,-2.20
2019-01-25T02:46:19.513Z,-2.20
2019-01-25T02:48:59.358Z,-2.10
2019-01-25T02:51:39.558Z,-2.10
2019-01-25T02:54:19.776Z,-2.20
2019-01-25T02:57:00.162Z,-2.10
2019-01-25T02:59:40.090Z,-2.10
2019-01-25T03:02:20.189Z,-2.10
2019-01-25T03:05:00.372Z,-2.10
2019-01-25T03:07:40.497Z,-2.10
2019-01-25T03:10:28.253Z,-2.20
2019-01-25T03:13:02.907Z,-2.20
2019-01-25T03:15:43.186Z,-2.20
2019-01-25T03:18:23.160Z,-2.30
2019-01-25T03:21:05.046Z,-2.20
2019-01-25T03:23:45.577Z,-2.30
2019-01-25T03:26:25.928Z,-2.30
2019-01-25T03:29:06.083Z,-2.30
2019-01-25T03:31:46.177Z,-2.40
2019-01-25T03:34:26.526Z,-2.30
2019-01-25T03:37:06.690Z,-2.30
2019-01-25T03:39:46.670Z,-2.30
2019-01-25T03:42:27.135Z,-2.40
2019-01-25T03:45:06.864Z,-2.50
2019-01-25T03:47:47.362Z,-2.60
2019-01-25T03:50:27.120Z,-2.60
2019-01-25T03:53:07.145Z,-2.60
2019-01-25T03:55:47.552Z,-2.60
2019-01-25T03:58:27.254Z,-2.60
2019-01-25T04:01:07.592Z,-2.60
2019-01-25T04:03:47.398Z,-2.60
2019-01-25T04:06:27.498Z,-2.60
2019-01-25T04:09:07.599Z,-2.60
2019-01-25T04:11:47.989Z,-2.60
2019-01-25T04:14:28.895Z,-2.60
2019-01-25T04:17:09.900Z,-2.60
2019-01-25T04:19:49.848Z,-2.60
2019-01-25T04:22:30.043Z,-2.60
2019-01-25T04:25:10.126Z,-2.60
2019-01-25T04:27:50.352Z,-2.60
2019-01-25T04:30:30.334Z,-2.60
2019-01-25T04:33:10.308Z,-2.60
2019-01-25T04:35:50.575Z,-2.70
2019-01-25T04:38:30.763Z,-2.70
2019-01-25T04:41:11.692Z,-2.70
2019-01-25T04:43:39.894Z,-2.70
2019-01-25T04:46:27.490Z,-2.70
2019-01-25T04:49:07.968Z,-2.70
2019-01-25T04:51:48.066Z,-2.70
2019-01-25T04:54:28.287Z,-2.70
2019-01-25T04:57:08.427Z,-2.70
2019-01-25T04:59:48.553Z,-2.70
2019-01-25T05:02:28.598Z,-2.70
2019-01-25T05:05:08.532Z,-2.70
2019-01-25T05:13:46.610Z,-2.60
2019-01-25T05:16:26.668Z,-2.70
2019-01-25T05:19:06.663Z,-2.70
2019-01-25T05:21:46.597Z,-2.70
2019-01-25T05:24:27.041Z,-2.70
2019-01-25T05:27:07.123Z,-2.70
2019-01-25T05:29:47.158Z,-2.70
2019-01-25T05:32:27.123Z,-2.70
2019-01-25T05:35:07.334Z,-2.70
2019-01-25T05:37:47.433Z,-2.70
2019-01-25T05:40:27.903Z,-2.70
2019-01-25T05:43:08.462Z,-2.60
2019-01-25T05:45:48.540Z,-2.70
2019-01-25T05:48:28.500Z,-2.60
2019-01-25T05:51:08.678Z,-2.60
2019-01-25T05:53:48.794Z,-2.60
2019-01-25T05:56:28.878Z,-2.60
2019-01-25T05:59:09.022Z,-2.60
2019-01-25T06:01:49.244Z,-2.60
2019-01-25T06:04:29.411Z,-2.60
2019-01-25T06:07:09.276Z,-2.60
2019-01-25T06:09:49.409Z,-2.60
2019-01-25T06:12:29.744Z,-2.60
2019-01-25T06:15:09.685Z,-2.60
2019-01-25T06:17:53.365Z,-2.60
2019-01-25T06:20:33.478Z,-2.50
2019-01-25T06:23:13.568Z,-2.60
2019-01-25T06:25:53.335Z,-2.60
2019-01-25T06:28:33.435Z,-2.50
2019-01-25T06:31:15.577Z,-2.50
2019-01-25T06:33:55.492Z,-2.50
2019-01-25T06:36:35.288Z,-2.50
2019-01-25T06:39:15.423Z,-2.40
2019-01-25T06:41:55.258Z,-2.40
2019-01-25T06:44:35.521Z,-2.50
2019-01-25T06:47:15.735Z,-2.50
2019-01-25T06:49:55.824Z,-2.50
2019-01-25T06:52:36.947Z,-2.50
2019-01-25T06:55:16.820Z,-2.50
2019-01-25T07:01:24.728Z,-2.50
2019-01-25T07:04:05.285Z,-2.50
2019-01-25T07:06:45.763Z,-2.60
2019-01-25T07:09:25.689Z,-2.50
2019-01-25T07:12:05.378Z,-2.60
2019-01-25T07:14:45.421Z,-2.50
2019-01-25T07:17:25.468Z,-2.60
2019-01-25T07:20:05.511Z,-2.60
2019-01-25T07:22:45.858Z,-2.60
2019-01-25T07:25:24.182Z,-2.60
2019-01-25T07:28:11.592Z,-2.50
2019-01-25T07:30:51.204Z,-2.60
2019-01-25T07:33:31.454Z,-2.60
2019-01-25T07:36:12.143Z,-2.60
2019-01-25T07:38:51.787Z,-2.60
2019-01-25T07:41:31.790Z,-2.60
2019-01-25T07:44:11.708Z,-2.60
2019-01-25T07:46:51.816Z,-2.60
2019-01-25T07:49:31.909Z,-2.60
2019-01-25T07:52:12.178Z,-2.60
2019-01-25T07:54:52.527Z,-2.60
2019-01-25T07:57:32.961Z,-2.60
2019-01-25T08:00:12.992Z,-2.60
2019-01-25T08:02:53.053Z,-2.60
2019-01-25T08:05:32.981Z,-2.60
2019-01-25T08:08:12.937Z,-2.60
2019-01-25T08:10:53.178Z,-2.60
2019-01-25T08:13:33.366Z,-2.60
2019-01-25T08:19:12.890Z,-2.50
2019-01-25T08:21:52.803Z,-2.50
2019-01-25T08:24:33.228Z,-2.50
2019-01-25T08:27:13.553Z,-2.50
2019-01-25T08:29:53.380Z,-2.50
2019-01-25T08:32:33.737Z,-2.40
2019-01-25T08:35:14.493Z,-2.40
2019-01-25T08:37:54.260Z,-2.40
2019-01-25T08:40:34.614Z,-2.40
2019-01-25T08:43:14.553Z,-2.40
2019-01-25T08:45:54.605Z,-2.40
2019-01-25T08:48:34.551Z,-2.40
2019-01-25T08:51:14.678Z,-2.40
2019-01-25T08:53:54.369Z,-2.40
2019-01-25T08:56:34.287Z,-2.30
2019-01-25T08:59:14.384Z,-2.30
2019-01-25T09:01:54.516Z,-2.30
2019-01-25T09:04:35.651Z,-2.30
2019-01-25T09:07:16.012Z,-2.30
2019-01-25T09:09:56.303Z,-2.20
2019-01-25T09:12:36.107Z,-2.20
2019-01-25T09:15:16.552Z,-2.20
2019-01-25T09:17:57.863Z,-2.20
2019-01-25T09:20:37.871Z,-2.20
2019-01-25T09:23:18.075Z,-2.10
2019-01-25T09:26:01.010Z,-2.10
2019-01-25T09:28:40.464Z,-2.10
2019-01-25T09:31:20.584Z,-2.10
2019-01-25T09:34:01.269Z,-2.10
2019-01-25T09:36:41.432Z,-2.00
2019-01-25T09:39:21.744Z,-2.00
2019-01-25T09:42:01.814Z,-2.00
2019-01-25T09:44:42.039Z,-2.00
2019-01-25T09:47:21.930Z,-2.00
2019-01-25T09:50:02.108Z,-2.00
2019-01-25T09:52:42.030Z,-1.90
2019-01-25T09:55:24.542Z,-2.00
2019-01-25T09:58:04.376Z,-1.90
2019-01-25T10:00:44.404Z,-1.90
2019-01-25T10:03:24.244Z,-1.90
2019-01-25T10:06:04.490Z,-1.90
2019-01-25T10:08:44.686Z,-1.90
2019-01-25T10:11:24.582Z,-1.90
2019-01-25T10:14:04.601Z,-1.90
2019-01-25T10:16:45.177Z,-1.90
2019-01-25T10:19:24.911Z,-1.90
2019-01-25T10:22:04.956Z,-1.80
2019-01-25T10:24:45.058Z,-1.80
2019-01-25T10:27:25.112Z,-1.80
2019-01-25T10:30:05.168Z,-1.80
2019-01-25T10:32:45.016Z,-1.80
2019-01-25T10:35:26.562Z,-1.80
2019-01-25T10:38:06.077Z,-1.80
2019-01-25T10:40:47.023Z,-1.80
2019-01-25T10:43:27.726Z,-1.80
2019-01-25T10:46:07.473Z,-1.70
2019-01-25T10:48:47.766Z,-1.70
2019-01-25T10:51:27.726Z,-1.70
2019-01-25T10:54:07.808Z,-1.70
2019-01-25T10:56:48.134Z,-1.70
2019-01-25T10:59:28.016Z,-1.60
2019-01-25T11:02:08.395Z,-1.60
2019-01-25T11:04:48.557Z,-1.50
2019-01-25T11:07:28.506Z,-1.40
2019-01-25T11:10:08.528Z,-1.40
2019-01-25T11:12:48.424Z,-1.40
2019-01-25T11:15:28.600Z,-1.40
2019-01-25T11:18:08.770Z,-1.40
2019-01-25T11:20:48.980Z,-1.40
2019-01-25T11:23:29.328Z,-1.40
2019-01-25T11:26:09.156Z,-1.40
2019-01-25T11:28:49.440Z,-1.40
2019-01-25T11:31:29.583Z,-1.40
2019-01-25T11:34:09.260Z,-1.40
2019-01-25T11:36:49.670Z,-1.40
2019-01-25T11:39:29.772Z,-1.40
2019-01-25T11:42:09.768Z,-1.40
2019-01-25T11:44:49.729Z,-1.30
2019-01-25T11:47:29.966Z,-1.30
2019-01-25T11:50:10.154Z,-1.30
2019-01-25T11:52:50.658Z,-1.30
2019-01-25T11:55:31.296Z,-1.30
2019-01-25T11:58:12.244Z,-1.30
2019-01-25T12:00:52.193Z,-1.30
2019-01-25T12:03:32.225Z,-1.30
2019-01-25T12:06:12.212Z,-1.30
2019-01-25T12:08:52.866Z,-1.20
2019-01-25T12:11:32.812Z,-1.20
2019-01-25T12:14:12.487Z,-1.20
2019-01-25T12:16:52.806Z,-1.20
2019-01-25T12:19:32.687Z,-1.20
2019-01-25T12:22:12.825Z,-1.10
2019-01-25T12:24:52.630Z,-1.10
2019-01-25T12:27:32.539Z,-1.10
2019-01-25T12:30:12.702Z,-1.10
2019-01-25T12:32:52.873Z,-1.10
2019-01-25T12:35:32.952Z,-1.00
2019-01-25T12:38:13.244Z,-1.00
2019-01-25T12:40:53.292Z,-1.00
2019-01-25T12:43:33.333Z,-1.00
2019-01-25T12:46:13.430Z,-1.00
2019-01-25T12:48:53.510Z,-1.00
2019-01-25T12:51:33.566Z,-0.90
2019-01-25T12:54:13.736Z,-0.90
2019-01-25T12:56:53.688Z,-0.80
2019-01-25T12:59:33.789Z,-0.80
2019-01-25T13:02:13.848Z,-0.90
2019-01-25T13:04:54.093Z,-0.80
2019-01-25T13:07:33.942Z,-0.80
2019-01-25T13:10:14.353Z,-0.80
2019-01-25T13:12:54.263Z,-0.80
2019-01-25T13:15:34.398Z,-0.80
2019-01-25T13:18:14.811Z,-0.70
2019-01-25T13:20:55.389Z,-0.70
2019-01-25T13:23:35.728Z,-0.70
2019-01-25T13:26:15.891Z,-0.70
2019-01-25T13:28:56.923Z,-0.70
2019-01-25T13:31:37.162Z,-0.70
2019-01-25T13:34:17.844Z,-0.70
2019-01-25T13:36:57.905Z,-0.70
2019-01-25T13:39:38.047Z,-0.70
2019-01-25T13:42:18.308Z,-0.70
2019-01-25T13:44:58.202Z,-0.60
2019-01-25T13:47:38.728Z,-0.60
2019-01-25T13:50:18.708Z,-0.60
2019-01-25T13:52:58.828Z,-0.60
2019-01-25T13:55:38.997Z,-0.50
2019-01-25T13:58:19.019Z,-0.50
2019-01-25T14:00:59.112Z,-0.50
2019-01-25T14:03:39.163Z,-0.50
2019-01-25T14:06:19.372Z,-0.40
2019-01-25T14:08:59.544Z,-0.40
2019-01-25T14:11:39.568Z,-0.40
2019-01-25T14:14:19.599Z,-0.40
2019-01-25T14:16:59.476Z,-0.40
2019-01-25T14:19:39.930Z,-0.40
2019-01-25T14:22:19.900Z,-0.30
2019-01-25T14:25:00.622Z,-0.30
2019-01-25T14:27:41.193Z,-0.30
2019-01-25T14:30:21.369Z,-0.30
2019-01-25T14:33:01.545Z,-0.30
2019-01-25T14:35:41.569Z,-0.30
2019-01-25T14:38:21.386Z,-0.20
2019-01-25T14:41:01.613Z,-0.20
2019-01-25T14:43:42.568Z,-0.20
2019-01-25T14:46:22.752Z,-0.20
2019-01-25T14:49:02.977Z,-0.20
2019-01-25T14:51:42.886Z,-0.20
2019-01-25T14:54:22.631Z,-0.20
2019-01-25T14:57:02.680Z,-0.10
2019-01-25T14:59:42.739Z,-0.10
2019-01-25T15:02:23.221Z,-0.10
2019-01-25T15:05:03.119Z,-0.10
2019-01-25T15:07:43.076Z,-0.10
2019-01-25T15:10:22.892Z,-0.10
2019-01-25T15:13:04.061Z,-0.10
2019-01-25T15:15:44.185Z,-0.10
2019-01-25T15:18:24.106Z,-0.10
2019-01-25T15:21:04.443Z,-0.10
2019-01-25T15:23:44.858Z,-0.10
2019-01-25T15:26:25.272Z,-0.10
2019-01-25T15:29:03.589Z,-0.10
2019-01-25T15:31:51.003Z,-0.10
2019-01-25T15:34:31.017Z,-0.10
2019-01-25T15:37:11.050Z,0.00
2019-01-25T15:39:51.309Z,0.00
2019-01-25T15:42:30.881Z,0.00
2019-01-25T15:45:11.129Z,0.00
2019-01-25T15:47:51.380Z,0.00
2019-01-25T15:50:31.294Z,0.00
2019-01-25T15:53:11.539Z,0.00
2019-01-25T15:55:51.557Z,0.00
2019-01-25T15:58:31.300Z,0.00
2019-01-25T16:01:11.672Z,0.00
2019-01-25T16:03:51.541Z,0.10
2019-01-25T16:06:31.931Z,0.10
2019-01-25T16:09:14.599Z,0.10
2019-01-25T16:11:53.398Z,0.10
2019-01-25T16:14:33.646Z,0.10
2019-01-25T16:17:13.461Z,0.10
2019-01-25T16:19:53.442Z,0.10
2019-01-25T16:22:33.404Z,0.10
2019-01-25T16:25:13.914Z,0.10
2019-01-25T16:27:53.537Z,0.10
2019-01-25T16:30:33.693Z,0.10
2019-01-25T16:33:13.344Z,0.10
2019-01-25T16:35:53.680Z,0.10
2019-01-25T16:38:33.731Z,0.10
2019-01-25T16:41:14.340Z,0.10
2019-01-25T16:43:53.887Z,0.10
2019-01-25T16:46:34.020Z,0.20
2019-01-25T16:49:14.080Z,0.20
2019-01-25T16:51:54.383Z,0.20
2019-01-25T16:54:34.444Z,0.20
2019-01-25T16:57:14.833Z,0.20
2019-01-25T16:59:54.569Z,0.20
2019-01-25T17:02:34.304Z,0.20
2019-01-25T17:05:14.452Z,0.20
2019-01-25T17:07:55.786Z,0.20
2019-01-25T17:10:35.642Z,0.20
2019-01-25T17:13:43.946Z,0.20
2019-01-25T17:16:30.953Z,0.20
2019-01-25T17:19:10.718Z,0.20
2019-01-25T17:21:51.137Z,0.30
2019-01-25T17:24:31.340Z,0.30
2019-01-25T17:27:11.104Z,0.30
2019-01-25T17:29:51.122Z,0.30
2019-01-25T17:32:31.334Z,0.30
2019-01-25T17:35:11.319Z,0.30
2019-01-25T17:37:51.683Z,0.30
2019-01-25T17:40:31.740Z,0.30
2019-01-25T17:43:12.278Z,0.30
2019-01-25T17:45:52.262Z,0.40
2019-01-25T17:48:32.462Z,0.40
2019-01-25T17:51:13.024Z,0.40
2019-01-25T17:53:53.280Z,0.40
2019-01-25T17:56:33.336Z,0.40
2019-01-25T17:59:12.724Z,0.40
2019-01-25T18:01:54.274Z,0.50
2019-01-25T18:04:32.348Z,0.40
2019-01-25T18:07:19.316Z,0.50
2019-01-25T18:09:59.382Z,0.50
2019-01-25T18:12:39.148Z,0.50
2019-01-25T18:15:19.515Z,0.40
2019-01-25T18:17:59.588Z,0.50
2019-01-25T18:20:39.578Z,0.50
2019-01-25T18:23:20.049Z,0.50
2019-01-25T18:25:59.594Z,0.50
2019-01-25T18:28:39.617Z,0.50
2019-01-25T18:31:19.423Z,0.50
2019-01-25T18:33:59.404Z,0.50
2019-01-25T18:36:39.166Z,0.50
2019-01-25T18:39:19.656Z,0.50
2019-01-25T18:41:59.405Z,0.50
2019-01-25T18:44:39.728Z,0.60
2019-01-25T18:47:20.004Z,0.60
2019-01-25T18:50:00.013Z,0.60
2019-01-25T18:52:40.266Z,0.60
2019-01-25T18:55:20.377Z,0.50
2019-01-25T18:58:00.383Z,0.60
2019-01-25T19:00:40.323Z,0.60
2019-01-25T19:03:20.366Z,0.60
2019-01-25T19:06:00.541Z,0.60
2019-01-25T19:08:40.653Z,0.60
2019-01-25T19:11:20.757Z,0.60
2019-01-25T19:14:00.782Z,0.60
2019-01-25T19:16:40.953Z,0.60
2019-01-25T19:19:21.417Z,0.60
2019-01-25T19:22:01.372Z,0.60
2019-01-25T19:24:41.171Z,0.70
2019-01-25T19:27:21.299Z,0.60
2019-01-25T19:30:01.206Z,0.60
2019-01-25T19:32:41.460Z,0.60
2019-01-25T19:35:21.225Z,0.60
2019-01-25T19:38:01.237Z,0.70
2019-01-25T19:40:41.209Z,0.70
2019-01-25T19:43:22.054Z,0.70
2019-01-25T19:46:02.808Z,0.70
2019-01-25T19:48:42.538Z,0.70
2019-01-25T19:51:22.846Z,0.70
2019-01-25T19:54:02.642Z,0.70
2019-01-25T19:56:42.550Z,0.70
2019-01-25T20:02:26.379Z,0.80
2019-01-25T20:05:06.395Z,0.80
2019-01-25T20:07:46.488Z,0.80
2019-01-25T20:10:27.105Z,0.80
2019-01-25T20:13:06.941Z,0.80
2019-01-25T20:15:46.859Z,0.80
2019-01-25T20:18:27.189Z,0.80
2019-01-25T20:21:07.337Z,0.80
2019-01-25T20:23:47.305Z,0.80
2019-01-25T20:26:28.418Z,0.90
2019-01-25T20:29:08.333Z,0.90
2019-01-25T20:31:48.576Z,0.90
2019-01-25T20:34:28.808Z,0.90
2019-01-25T20:37:08.952Z,0.90
2019-01-25T20:39:49.837Z,0.90
2019-01-25T20:42:30.238Z,0.90
2019-01-25T20:45:10.308Z,0.90
2019-01-25T20:47:50.453Z,0.90
2019-01-25T20:50:30.693Z,1.00
2019-01-25T20:53:10.521Z,1.00
2019-01-25T20:55:50.499Z,0.90
2019-01-25T20:58:30.488Z,1.00
2019-01-25T21:01:10.301Z,1.00
2019-01-25T21:03:50.965Z,1.00
2019-01-25T21:06:30.803Z,1.00
2019-01-25T21:09:10.968Z,1.00
2019-01-25T21:15:13.237Z,1.10
2019-01-25T21:17:53.532Z,1.10
2019-01-25T21:20:33.582Z,1.10
2019-01-25T21:23:13.746Z,1.10
2019-01-25T21:25:53.728Z,1.10
2019-01-25T21:28:33.845Z,1.10
2019-01-25T21:31:13.971Z,1.10
2019-01-25T21:33:54.183Z,1.10
2019-01-25T21:36:33.932Z,1.10
2019-01-25T21:39:14.117Z,1.20
2019-01-25T21:41:54.095Z,1.20
2019-01-25T21:44:34.100Z,1.20
2019-01-25T21:47:14.188Z,1.20
2019-01-25T21:49:54.387Z,1.20
2019-01-25T21:52:34.365Z,1.20
2019-01-25T21:55:14.545Z,1.20
2019-01-25T21:57:54.512Z,1.20
2019-01-25T22:00:34.548Z,1.20
2019-01-25T22:03:14.493Z,1.20
2019-01-25T22:05:54.715Z,1.20
2019-01-25T22:08:34.608Z,1.20
2019-01-25T22:11:15.030Z,1.20
2019-01-25T22:13:55.362Z,1.20
2019-01-25T22:16:35.912Z,1.20
2019-01-25T22:19:15.899Z,1.20
2019-01-25T22:21:56.028Z,1.20
2019-01-25T22:24:36.391Z,1.20
2019-01-25T22:27:16.244Z,1.20
2019-01-25T22:29:56.795Z,1.20
2019-01-25T22:32:37.156Z,1.20
2019-01-25T22:35:16.940Z,1.20
2019-01-25T22:37:57.413Z,1.20
2019-01-25T22:40:37.140Z,1.20
2019-01-25T22:43:17.566Z,1.20
2019-01-25T22:45:58.747Z,1.20
2019-01-25T22:48:40.044Z,1.20
2019-01-25T22:51:23.319Z,1.20
2019-01-25T22:54:03.140Z,1.20
2019-01-25T22:56:43.249Z,1.20
2019-01-25T22:59:23.380Z,1.20
2019-01-25T23:02:03.484Z,1.20
2019-01-25T23:04:52.125Z,1.20
2019-01-25T23:07:39.242Z,1.20
2019-01-25T23:10:19.548Z,1.30
2019-01-25T23:12:59.908Z,1.30
2019-01-25T23:15:40.168Z,1.30
2019-01-25T23:18:19.923Z,1.30
2019-01-25T23:21:00.485Z,1.30
2019-01-25T23:23:41.050Z,1.30
2019-01-25T23:26:21.700Z,1.30
2019-01-25T23:29:01.627Z,1.30
2019-01-25T23:31:41.512Z,1.30
2019-01-25T23:34:21.925Z,1.30
2019-01-25T23:37:01.851Z,1.30
2019-01-25T23:39:42.200Z,1.30
2019-01-25T23:42:21.927Z,1.40
2019-01-25T23:45:02.314Z,1.40
2019-01-25T23:47:42.391Z,1.30
2019-01-25T23:50:22.265Z,1.30
2019-01-25T23:53:02.548Z,1.30
2019-01-25T23:55:42.563Z,1.30
2019-01-25T23:58:23.012Z,1.30
